Aviation Digital Data Service (ADDS)

Output produced by METARs form (1030 UTC 11 May 2021)
found at http://www.aviationweather.gov/metar/data/
 
METAR text: RJSI 111000Z 33004KT 260V010 9999 FEW040 SCT070 12/07 Q1017
Conditions at: RJSI (HANAMAKI AIRPORT, JP) observed 1000 UTC 11 May 2021
Temperature: 12.0°C (54°F)
Dewpoint: 7.0°C (45°F) [RH = 71%]
Pressure (altimeter): 30.03 inches Hg (1017.0 mb)
Winds: from the NNW (330 degrees) at 5 MPH (4 knots; 2.1 m/s)
Visibility: 6 or more miles (10+ km)
Ceiling: at least 12,000 feet AGL
Clouds: few clouds at 4000 feet AGL
scattered clouds at 7000 feet AGL
Weather: no significant weather observed at this time

METAR text: RJSI 110900Z VRB02KT 9999 FEW030 SCT040 13/07 Q1016
Conditions at: RJSI (HANAMAKI AIRPORT, JP) observed 0900 UTC 11 May 2021
Temperature: 13.0°C (55°F)
Dewpoint: 7.0°C (45°F) [RH = 67%]
Pressure (altimeter): 30.00 inches Hg (1016.0 mb)
Winds: variable direction winds at 2 MPH (2 knots; 1.0 m/s)
Visibility: 6 or more miles (10+ km)
Ceiling: at least 12,000 feet AGL
Clouds: few clouds at 3000 feet AGL
scattered clouds at 4000 feet AGL
Weather: no significant weather observed at this time

METAR text: RJSI 110800Z 24004KT 160V300 9999 FEW030 SCT040 14/07 Q1015
Conditions at: RJSI (HANAMAKI AIRPORT, JP) observed 0800 UTC 11 May 2021
Temperature: 14.0°C (57°F)
Dewpoint: 7.0°C (45°F) [RH = 63%]
Pressure (altimeter): 29.97 inches Hg (1015.0 mb)
Winds: from the WSW (240 degrees) at 5 MPH (4 knots; 2.1 m/s)
Visibility: 6 or more miles (10+ km)
Ceiling: at least 12,000 feet AGL
Clouds: few clouds at 3000 feet AGL
scattered clouds at 4000 feet AGL
Weather: no significant weather observed at this time

METAR text: RJSI 110700Z 28009KT 240V320 9999 FEW030 SCT050 15/07 Q1014
Conditions at: RJSI (HANAMAKI AIRPORT, JP) observed 0700 UTC 11 May 2021
Temperature: 15.0°C (59°F)
Dewpoint: 7.0°C (45°F) [RH = 59%]
Pressure (altimeter): 29.94 inches Hg (1014.0 mb)
Winds: from the W (280 degrees) at 10 MPH (9 knots; 4.6 m/s)
Visibility: 6 or more miles (10+ km)
Ceiling: at least 12,000 feet AGL
Clouds: few clouds at 3000 feet AGL
scattered clouds at 5000 feet AGL
Weather: no significant weather observed at this time

METAR text: RJSI 110600Z 26008KT 180V320 9999 FEW030 SCT050 17/06 Q1014
Conditions at: RJSI (HANAMAKI AIRPORT, JP) observed 0600 UTC 11 May 2021
Temperature: 17.0°C (63°F)
Dewpoint: 6.0°C (43°F) [RH = 48%]
Pressure (altimeter): 29.94 inches Hg (1014.0 mb)
Winds: from the W (260 degrees) at 9 MPH (8 knots; 4.1 m/s)
Visibility: 6 or more miles (10+ km)
Ceiling: at least 12,000 feet AGL
Clouds: few clouds at 3000 feet AGL
scattered clouds at 5000 feet AGL
Weather: no significant weather observed at this time

METAR text: RJSI 110500Z 23010KT 200V260 9999 -SHRA FEW030 SCT040 BKN050 15/06 Q1014
Conditions at: RJSI (HANAMAKI AIRPORT, JP) observed 0500 UTC 11 May 2021
Temperature: 15.0°C (59°F)
Dewpoint: 6.0°C (43°F) [RH = 55%]
Pressure (altimeter): 29.94 inches Hg (1014.0 mb)
Winds: from the SW (230 degrees) at 12 MPH (10 knots; 5.1 m/s)
Visibility: 6 or more miles (10+ km)
Ceiling: 5000 feet AGL
Clouds: few clouds at 3000 feet AGL
scattered clouds at 4000 feet AGL
broken clouds at 5000 feet AGL
Weather: -SHRA  (light rain showers)

METAR text: RJSI 110400Z 23010KT 200V280 9999 -SHRA FEW030 SCT040 BKN050 16/06 Q1014
Conditions at: RJSI (HANAMAKI AIRPORT, JP) observed 0400 UTC 11 May 2021
Temperature: 16.0°C (61°F)
Dewpoint: 6.0°C (43°F) [RH = 51%]
Pressure (altimeter): 29.94 inches Hg (1014.0 mb)
Winds: from the SW (230 degrees) at 12 MPH (10 knots; 5.1 m/s)
Visibility: 6 or more miles (10+ km)
Ceiling: 5000 feet AGL
Clouds: few clouds at 3000 feet AGL
scattered clouds at 4000 feet AGL
broken clouds at 5000 feet AGL
Weather: -SHRA  (light rain showers)

METAR text: RJSI 110300Z 29006KT 240V350 9999 FEW030 SCT040 BKN060 17/06 Q1014
Conditions at: RJSI (HANAMAKI AIRPORT, JP) observed 0300 UTC 11 May 2021
Temperature: 17.0°C (63°F)
Dewpoint: 6.0°C (43°F) [RH = 48%]
Pressure (altimeter): 29.94 inches Hg (1014.0 mb)
Winds: from the WNW (290 degrees) at 7 MPH (6 knots; 3.1 m/s)
Visibility: 6 or more miles (10+ km)
Ceiling: 6000 feet AGL
Clouds: few clouds at 3000 feet AGL
scattered clouds at 4000 feet AGL
broken clouds at 6000 feet AGL
Weather: no significant weather observed at this time

METAR text: RJSI 110200Z 27007KT 180V330 9999 FEW030 SCT040 BKN050 18/06 Q1014
Conditions at: RJSI (HANAMAKI AIRPORT, JP) observed 0200 UTC 11 May 2021
Temperature: 18.0°C (64°F)
Dewpoint: 6.0°C (43°F) [RH = 45%]
Pressure (altimeter): 29.94 inches Hg (1014.0 mb)
Winds: from the W (270 degrees) at 8 MPH (7 knots; 3.6 m/s)
Visibility: 6 or more miles (10+ km)
Ceiling: 5000 feet AGL
Clouds: few clouds at 3000 feet AGL
scattered clouds at 4000 feet AGL
broken clouds at 5000 feet AGL
Weather: no significant weather observed at this time

METAR text: RJSI 110100Z 27009KT 210V300 9999 FEW030 SCT040 BKN050 17/06 Q1014
Conditions at: RJSI (HANAMAKI AIRPORT, JP) observed 0100 UTC 11 May 2021
Temperature: 17.0°C (63°F)
Dewpoint: 6.0°C (43°F) [RH = 48%]
Pressure (altimeter): 29.94 inches Hg (1014.0 mb)
Winds: from the W (270 degrees) at 10 MPH (9 knots; 4.6 m/s)
Visibility: 6 or more miles (10+ km)
Ceiling: 5000 feet AGL
Clouds: few clouds at 3000 feet AGL
scattered clouds at 4000 feet AGL
broken clouds at 5000 feet AGL
Weather: no significant weather observed at this time

METAR text: RJSI 110000Z 29009KT 260V340 9999 FEW020 SCT030 BKN040 14/07 Q1014
Conditions at: RJSI (HANAMAKI AIRPORT, JP) observed 0000 UTC 11 May 2021
Temperature: 14.0°C (57°F)
Dewpoint: 7.0°C (45°F) [RH = 63%]
Pressure (altimeter): 29.94 inches Hg (1014.0 mb)
Winds: from the WNW (290 degrees) at 10 MPH (9 knots; 4.6 m/s)
Visibility: 6 or more miles (10+ km)
Ceiling: 4000 feet AGL
Clouds: few clouds at 2000 feet AGL
scattered clouds at 3000 feet AGL
broken clouds at 4000 feet AGL
Weather: no significant weather observed at this time

METAR text: RJSI 102300Z VRB03KT 9999 FEW020 SCT030 BKN040 13/07 Q1014
Conditions at: RJSI (HANAMAKI AIRPORT, JP) observed 2300 UTC 10 May 2021
Temperature: 13.0°C (55°F)
Dewpoint: 7.0°C (45°F) [RH = 67%]
Pressure (altimeter): 29.94 inches Hg (1014.0 mb)
Winds: variable direction winds at 3 MPH (3 knots; 1.5 m/s)
Visibility: 6 or more miles (10+ km)
Ceiling: 4000 feet AGL
Clouds: few clouds at 2000 feet AGL
scattered clouds at 3000 feet AGL
broken clouds at 4000 feet AGL
Weather: no significant weather observed at this time

METAR text: RJSI 102240Z 12005KT 9999 FEW020 SCT030 BKN040 13/08 Q1014 RMK 1CU020 3CU030 6CU040 A2996
Conditions at: RJSI (HANAMAKI AIRPORT, JP) observed 2240 UTC 10 May 2021
Temperature: 13.0°C (55°F)
Dewpoint: 8.0°C (46°F) [RH = 72%]
Pressure (altimeter): 29.94 inches Hg (1014.0 mb)
Winds: from the ESE (120 degrees) at 6 MPH (5 knots; 2.6 m/s)
Visibility: 6 or more miles (10+ km)
Ceiling: 4000 feet AGL
Clouds: few clouds at 2000 feet AGL
scattered clouds at 3000 feet AGL
broken clouds at 4000 feet AGL
Weather: no significant weather observed at this time

METAR text: RJSI 101000Z 29004KT 200V350 9999 -SHRA FEW020 BKN035 12/07 Q1010
Conditions at: RJSI (HANAMAKI AIRPORT, JP) observed 1000 UTC 10 May 2021
Temperature: 12.0°C (54°F)
Dewpoint: 7.0°C (45°F) [RH = 71%]
Pressure (altimeter): 29.82 inches Hg (1010.0 mb)
Winds: from the WNW (290 degrees) at 5 MPH (4 knots; 2.1 m/s)
Visibility: 6 or more miles (10+ km)
Ceiling: 3500 feet AGL
Clouds: few clouds at 2000 feet AGL
broken clouds at 3500 feet AGL
Weather: -SHRA  (light rain showers)

METAR text: RJSI 100900Z 29006KT 240V330 9999 -SHRA FEW020 BKN035 13/06 Q1009
Conditions at: RJSI (HANAMAKI AIRPORT, JP) observed 0900 UTC 10 May 2021
Temperature: 13.0°C (55°F)
Dewpoint: 6.0°C (43°F) [RH = 62%]
Pressure (altimeter): 29.79 inches Hg (1009.0 mb)
Winds: from the WNW (290 degrees) at 7 MPH (6 knots; 3.1 m/s)
Visibility: 6 or more miles (10+ km)
Ceiling: 3500 feet AGL
Clouds: few clouds at 2000 feet AGL
broken clouds at 3500 feet AGL
Weather: -SHRA  (light rain showers)

METAR text: RJSI 100800Z 31004KT 250V360 9999 VCSH FEW020 BKN035 13/07 Q1009
Conditions at: RJSI (HANAMAKI AIRPORT, JP) observed 0800 UTC 10 May 2021
Temperature: 13.0°C (55°F)
Dewpoint: 7.0°C (45°F) [RH = 67%]
Pressure (altimeter): 29.79 inches Hg (1009.0 mb)
Winds: from the NW (310 degrees) at 5 MPH (4 knots; 2.1 m/s)
Visibility: 6 or more miles (10+ km)
Ceiling: 3500 feet AGL
Clouds: few clouds at 2000 feet AGL
broken clouds at 3500 feet AGL
Weather: VCSH  (showers in vicinity)

METAR text: RJSI 100700Z 03006KT 350V070 9999 -SHRA FEW020 BKN030 12/07 Q1009
Conditions at: RJSI (HANAMAKI AIRPORT, JP) observed 0700 UTC 10 May 2021
Temperature: 12.0°C (54°F)
Dewpoint: 7.0°C (45°F) [RH = 71%]
Pressure (altimeter): 29.79 inches Hg (1009.0 mb)
Winds: from the NNE (30 degrees) at 7 MPH (6 knots; 3.1 m/s)
Visibility: 6 or more miles (10+ km)
Ceiling: 3000 feet AGL
Clouds: few clouds at 2000 feet AGL
broken clouds at 3000 feet AGL
Weather: -SHRA  (light rain showers)

METAR text: RJSI 100600Z 31004KT 230V020 9999 -SHRA FEW020 SCT030 BKN040 13/07 Q1008
Conditions at: RJSI (HANAMAKI AIRPORT, JP) observed 0600 UTC 10 May 2021
Temperature: 13.0°C (55°F)
Dewpoint: 7.0°C (45°F) [RH = 67%]
Pressure (altimeter): 29.76 inches Hg (1008.0 mb)
Winds: from the NW (310 degrees) at 5 MPH (4 knots; 2.1 m/s)
Visibility: 6 or more miles (10+ km)
Ceiling: 4000 feet AGL
Clouds: few clouds at 2000 feet AGL
scattered clouds at 3000 feet AGL
broken clouds at 4000 feet AGL
Weather: -SHRA  (light rain showers)

METAR text: RJSI 100500Z 30007KT 260V340 9999 VCSH FEW030 BKN040 14/07 Q1008
Conditions at: RJSI (HANAMAKI AIRPORT, JP) observed 0500 UTC 10 May 2021
Temperature: 14.0°C (57°F)
Dewpoint: 7.0°C (45°F) [RH = 63%]
Pressure (altimeter): 29.76 inches Hg (1008.0 mb)
Winds: from the WNW (300 degrees) at 8 MPH (7 knots; 3.6 m/s)
Visibility: 6 or more miles (10+ km)
Ceiling: 4000 feet AGL
Clouds: few clouds at 3000 feet AGL
broken clouds at 4000 feet AGL
Weather: VCSH  (showers in vicinity)

METAR text: RJSI 100400Z 28009KT 230V330 9999 FEW030 BKN040 14/06 Q1007
Conditions at: RJSI (HANAMAKI AIRPORT, JP) observed 0400 UTC 10 May 2021
Temperature: 14.0°C (57°F)
Dewpoint: 6.0°C (43°F) [RH = 58%]
Pressure (altimeter): 29.73 inches Hg (1007.0 mb)
Winds: from the W (280 degrees) at 10 MPH (9 knots; 4.6 m/s)
Visibility: 6 or more miles (10+ km)
Ceiling: 4000 feet AGL
Clouds: few clouds at 3000 feet AGL
broken clouds at 4000 feet AGL
Weather: no significant weather observed at this time

METAR text: RJSI 100300Z 33011KT 280V360 9999 FEW030 BKN040 14/06 Q1007
Conditions at: RJSI (HANAMAKI AIRPORT, JP) observed 0300 UTC 10 May 2021
Temperature: 14.0°C (57°F)
Dewpoint: 6.0°C (43°F) [RH = 58%]
Pressure (altimeter): 29.73 inches Hg (1007.0 mb)
Winds: from the NNW (330 degrees) at 13 MPH (11 knots; 5.7 m/s)
Visibility: 6 or more miles (10+ km)
Ceiling: 4000 feet AGL
Clouds: few clouds at 3000 feet AGL
broken clouds at 4000 feet AGL
Weather: no significant weather observed at this time

METAR text: RJSI 100200Z VRB04KT 9999 FEW020 SCT030 BKN040 13/05 Q1007
Conditions at: RJSI (HANAMAKI AIRPORT, JP) observed 0200 UTC 10 May 2021
Temperature: 13.0°C (55°F)
Dewpoint: 5.0°C (41°F) [RH = 58%]
Pressure (altimeter): 29.73 inches Hg (1007.0 mb)
Winds: variable direction winds at 5 MPH (4 knots; 2.1 m/s)
Visibility: 6 or more miles (10+ km)
Ceiling: 4000 feet AGL
Clouds: few clouds at 2000 feet AGL
scattered clouds at 3000 feet AGL
broken clouds at 4000 feet AGL
Weather: no significant weather observed at this time

METAR text: RJSI 100100Z 23006KT 190V270 9999 -SHRA FEW020 BKN030 13/06 Q1007
Conditions at: RJSI (HANAMAKI AIRPORT, JP) observed 0100 UTC 10 May 2021
Temperature: 13.0°C (55°F)
Dewpoint: 6.0°C (43°F) [RH = 62%]
Pressure (altimeter): 29.73 inches Hg (1007.0 mb)
Winds: from the SW (230 degrees) at 7 MPH (6 knots; 3.1 m/s)
Visibility: 6 or more miles (10+ km)
Ceiling: 3000 feet AGL
Clouds: few clouds at 2000 feet AGL
broken clouds at 3000 feet AGL
Weather: -SHRA  (light rain showers)

METAR text: RJSI 100000Z VRB05KT 9999 -SHRA FEW020 BKN030 BKN040 12/06 Q1006
Conditions at: RJSI (HANAMAKI AIRPORT, JP) observed 0000 UTC 10 May 2021
Temperature: 12.0°C (54°F)
Dewpoint: 6.0°C (43°F) [RH = 67%]
Pressure (altimeter): 29.70 inches Hg (1006.0 mb)
Winds: variable direction winds at 6 MPH (5 knots; 2.6 m/s)
Visibility: 6 or more miles (10+ km)
Ceiling: 3000 feet AGL
Clouds: few clouds at 2000 feet AGL
broken clouds at 3000 feet AGL
broken clouds at 4000 feet AGL
Weather: -SHRA  (light rain showers)

METAR text: RJSI 092300Z 26005KT 190V310 9999 -SHRA FEW020 SCT030 BKN040 12/05 Q1005
Conditions at: RJSI (HANAMAKI AIRPORT, JP) observed 2300 UTC 09 May 2021
Temperature: 12.0°C (54°F)
Dewpoint: 5.0°C (41°F) [RH = 62%]
Pressure (altimeter): 29.68 inches Hg (1005.0 mb)
Winds: from the W (260 degrees) at 6 MPH (5 knots; 2.6 m/s)
Visibility: 6 or more miles (10+ km)
Ceiling: 4000 feet AGL
Clouds: few clouds at 2000 feet AGL
scattered clouds at 3000 feet AGL
broken clouds at 4000 feet AGL
Weather: -SHRA  (light rain showers)

METAR text: RJSI 092240Z VRB05KT 9999 -SHRA FEW020 SCT030 BKN040 12/06 Q1005 RMK 1CU020 3CU030 7CU040 A2968
Conditions at: RJSI (HANAMAKI AIRPORT, JP) observed 2240 UTC 09 May 2021
Temperature: 12.0°C (54°F)
Dewpoint: 6.0°C (43°F) [RH = 67%]
Pressure (altimeter): 29.68 inches Hg (1005.0 mb)
Winds: variable direction winds at 6 MPH (5 knots; 2.6 m/s)
Visibility: 6 or more miles (10+ km)
Ceiling: 4000 feet AGL
Clouds: few clouds at 2000 feet AGL
scattered clouds at 3000 feet AGL
broken clouds at 4000 feet AGL
Weather: -SHRA  (light rain showers)

Forecast for: RJSI (HANAMAKI AIRPORT, JP)
Text: TAF RJSI 110507Z 1106/1212 24010KT 9999 -SHRA FEW020 BKN030 BKN040
Forecast period: 0600 to 1300 UTC 11 May 2021
Forecast type: FROM: standard forecast or significant change
Winds: from the WSW (240 degrees) at 12 MPH (10 knots; 5.1 m/s)
Visibility: 6 or more miles (10+ km)
Ceiling: 3000 feet AGL
Clouds: few clouds at 2000 feet AGL
broken clouds at 3000 feet AGL
broken clouds at 4000 feet AGL
Weather: -SHRA  (light rain showers)
Text: BECMG 1113/1115 02004KT
Forecast period: 1300 UTC 11 May 2021 to 0000 UTC 12 May 2021
Forecast type: BECOMING: Conditions expected to become as follows by 1500 UTC 11 May 2021
Winds: from the NNE (20 degrees) at 5 MPH (4 knots; 2.1 m/s)
Visibility: 6 or more miles (10+ km)
Ceiling: 3000 feet AGL
Clouds: few clouds at 2000 feet AGL
broken clouds at 3000 feet AGL
broken clouds at 4000 feet AGL
Weather: -SHRA  (light rain showers)
Text: BECMG 1200/1203 19013KT
Forecast period: 0000 to 1200 UTC 12 May 2021
Forecast type: BECOMING: Conditions expected to become as follows by 0300 UTC 12 May 2021
Winds: from the S (190 degrees) at 15 MPH (13 knots; 6.7 m/s)
Visibility: 6 or more miles (10+ km)
Ceiling: 3000 feet AGL
Clouds: few clouds at 2000 feet AGL
broken clouds at 3000 feet AGL
broken clouds at 4000 feet AGL
Weather: -SHRA  (light rain showers)